Time;durP1;ratioP1;P1;durP2;ratioP2;P2;SDS_P1;SDS_P2;PMS_P1;PMS_P2;Temp;Humidity;BMP_temperature;BMP_pressure;BME280_temperature;BME280_humidity;BME280_pressure;Samples;Min_cycle;Max_cycle;Signal;HPM_P1;HPM_P2
2022/03/27 00:00:31;;;;;;;3.08;2.00;;;20.10;51.70;;;;;;5110385;28;20832;-70
2022/03/27 00:02:57;;;;;;;4.07;2.03;;;20.20;51.70;;;;;;5092320;28;20262;-72
2022/03/27 00:05:23;;;;;;;3.38;1.98;;;20.10;51.60;;;;;;5108775;28;20363;-70
2022/03/27 00:07:48;;;;;;;2.55;1.90;;;20.10;51.50;;;;;;5110247;28;20031;-70
2022/03/27 00:10:14;;;;;;;2.65;2.00;;;20.10;51.50;;;;;;5092238;28;20039;-71
2022/03/27 00:12:40;;;;;;;2.72;1.95;;;20.10;51.50;;;;;;5110412;28;20040;-70
2022/03/27 00:15:07;;;;;;;3.92;1.67;;;20.10;51.50;;;;;;5109070;28;20500;-71
2022/03/27 00:17:34;;;;;;;3.47;2.00;;;20.10;51.40;;;;;;5107050;27;20035;-71
2022/03/27 00:20:01;;;;;;;2.78;1.67;;;20.10;51.50;;;;;;5109536;28;20593;-71
2022/03/27 00:22:27;;;;;;;4.28;1.73;;;20.10;51.40;;;;;;5110496;28;20483;-72
2022/03/27 00:24:53;;;;;;;4.60;2.00;;;20.10;51.30;;;;;;5109858;28;20038;-70
2022/03/27 00:27:18;;;;;;;2.75;1.80;;;20.10;51.30;;;;;;5075485;28;20426;-71
2022/03/27 00:29:44;;;;;;;2.50;1.70;;;20.10;51.30;;;;;;5073347;28;20051;-71
2022/03/27 00:32:10;;;;;;;1.77;1.58;;;20.10;51.30;;;;;;5109971;28;20042;-72
2022/03/27 00:34:36;;;;;;;2.53;1.70;;;20.10;51.30;;;;;;5107014;28;20557;-71
2022/03/27 00:37:01;;;;;;;3.72;1.83;;;20.00;51.20;;;;;;5110528;28;20047;-72
2022/03/27 00:39:27;;;;;;;2.83;1.98;;;20.00;51.20;;;;;;5087966;28;20470;-70
2022/03/27 00:41:54;;;;;;;2.42;1.60;;;20.00;51.10;;;;;;5091764;28;20035;-70
2022/03/27 00:44:20;;;;;;;2.45;1.73;;;20.00;51.10;;;;;;5091764;28;20047;-69
2022/03/27 00:46:46;;;;;;;2.65;1.90;;;20.00;51.10;;;;;;5107974;28;20163;-71
2022/03/27 00:49:11;;;;;;;3.20;1.60;;;20.00;51.10;;;;;;5108712;28;20042;-71
2022/03/27 00:51:37;;;;;;;2.40;1.63;;;20.00;51.10;;;;;;5110799;28;20080;-70
2022/03/27 00:54:05;;;;;;;3.17;1.80;;;20.00;51.10;;;;;;5109785;28;20039;-69
2022/03/27 00:56:31;;;;;;;1.83;1.38;;;20.00;51.10;;;;;;5107150;28;20048;-70
2022/03/27 00:58:56;;;;;;;2.63;1.70;;;20.00;51.10;;;;;;5109374;28;20031;-71
2022/03/27 01:01:31;;;;;;;2.38;1.75;;;20.00;51.00;;;;;;5109988;28;20040;-70
2022/03/27 01:03:58;;;;;;;2.55;1.65;;;20.00;51.00;;;;;;5109674;28;20084;-69
2022/03/27 01:06:41;;;;;;;2.58;1.55;;;20.00;51.00;;;;;;5091412;28;20054;-71
2022/03/27 01:12:23;;;;;;;2.00;1.60;;;20.00;50.90;;;;;;5106242;28;20407;-69
2022/03/27 01:14:50;;;;;;;2.63;1.52;;;20.00;50.90;;;;;;5091867;28;20096;-69
2022/03/27 01:17:19;;;;;;;1.80;1.45;;;20.00;50.90;;;;;;5109940;28;20039;-69
2022/03/27 01:19:49;;;;;;;;;;;20.00;51.70;;;;;;5107024;28;20036;-71
2022/03/27 01:22:16;;;;;;;2.63;1.50;;;20.00;50.80;;;;;;5126413;27;19926;-70
2022/03/27 01:24:43;;;;;;;2.10;1.42;;;20.00;51.00;;;;;;5108547;28;20047;-70
2022/03/27 01:27:09;;;;;;;1.77;1.48;;;19.90;50.90;;;;;;5109821;28;20470;-72
2022/03/27 01:29:35;;;;;;;2.03;1.50;;;19.90;50.80;;;;;;5090725;28;20043;-70
2022/03/27 01:32:03;;;;;;;1.80;1.35;;;19.90;50.80;;;;;;5109612;28;20126;-70
2022/03/27 01:34:30;;;;;;;2.38;1.50;;;19.90;50.80;;;;;;5106246;28;20502;-70
2022/03/27 01:36:56;;;;;;;2.30;1.58;;;19.90;50.80;;;;;;5104478;28;20035;-70
2022/03/27 01:39:21;;;;;;;1.85;1.45;;;19.90;50.80;;;;;;5107978;28;20104;-70
2022/03/27 01:41:47;;;;;;;2.05;1.55;;;19.90;50.80;;;;;;5109410;28;20126;-70
2022/03/27 01:44:17;;;;;;;2.30;1.40;;;19.90;50.80;;;;;;5090281;28;20044;-70
2022/03/27 01:46:44;;;;;;;3.30;1.52;;;19.90;50.70;;;;;;5090959;28;20535;-70
2022/03/27 01:49:12;;;;;;;2.25;1.33;;;19.90;51.50;;;;;;5107580;28;20039;-70
2022/03/27 01:51:39;;;;;;;1.77;1.30;;;19.90;50.70;;;;;;5108760;28;20033;-70
2022/03/27 01:54:05;;;;;;;2.17;1.55;;;19.90;51.50;;;;;;5090068;28;20054;-70
2022/03/27 01:56:32;;;;;;;1.85;1.35;;;19.90;50.70;;;;;;5091054;28;20466;-72
2022/03/27 01:58:59;;;;;;;2.38;1.50;;;19.90;50.70;;;;;;5108479;28;20036;-71
2022/03/27 02:01:25;;;;;;;1.95;1.50;;;19.90;50.70;;;;;;5090896;28;20047;-70
2022/03/27 02:03:54;;;;;;;2.80;1.60;;;19.90;50.70;;;;;;5108684;28;20042;-69
2022/03/27 02:06:20;;;;;;;1.98;1.25;;;19.90;50.70;;;;;;5090355;28;20036;-71
2022/03/27 02:08:46;;;;;;;1.60;1.40;;;19.80;50.60;;;;;;5108548;28;20054;-71
2022/03/27 02:11:15;;;;;;;2.40;1.20;;;19.90;50.70;;;;;;5108075;28;20062;-69
2022/03/27 02:13:41;;;;;;;2.67;1.40;;;19.90;50.60;;;;;;5107081;28;20036;-71
2022/03/27 02:16:07;;;;;;;1.77;1.08;;;19.80;50.50;;;;;;5108929;28;20046;-70
2022/03/27 02:18:33;;;;;;;1.52;1.35;;;19.80;50.50;;;;;;5109507;28;20045;-70
2022/03/27 02:21:03;;;;;;;1.73;1.30;;;19.80;50.50;;;;;;5108716;28;20068;-70
2022/03/27 02:23:29;;;;;;;2.35;1.50;;;19.80;50.60;;;;;;5106330;28;20047;-71
2022/03/27 02:25:55;;;;;;;1.77;1.00;;;19.80;50.50;;;;;;5109286;28;20143;-72
2022/03/27 02:28:22;;;;;;;1.58;1.23;;;19.80;50.50;;;;;;5108687;28;20042;-72
2022/03/27 02:30:48;;;;;;;2.70;1.42;;;19.80;50.50;;;;;;5090444;28;20078;-70
2022/03/27 02:33:13;;;;;;;1.50;1.20;;;19.80;50.50;;;;;;5108870;28;20032;-71
2022/03/27 02:35:39;;;;;;;1.30;1.00;;;19.80;50.50;;;;;;5108787;28;20402;-72
2022/03/27 02:38:06;;;;;;;1.85;1.25;;;19.80;50.50;;;;;;5106320;28;20052;-71
2022/03/27 02:40:41;;;;;;;1.98;1.33;;;19.80;50.50;;;;;;5087848;28;20035;-70
2022/03/27 02:43:07;;;;;;;2.00;1.35;;;19.80;50.50;;;;;;5105721;28;20368;-71
2022/03/27 02:45:33;;;;;;;1.92;1.15;;;19.80;50.50;;;;;;5105205;28;20023;-72
2022/03/27 02:48:00;;;;;;;4.10;1.48;;;19.80;50.50;;;;;;5107004;28;20187;-70
2022/03/27 02:50:28;;;;;;;2.00;1.13;;;19.70;50.40;;;;;;5107829;28;20594;-71
2022/03/27 02:52:54;;;;;;;;;;;19.70;50.50;;;;;;5108285;28;20735;-72
2022/03/27 02:55:20;;;;;;;2.72;1.20;;;19.70;50.40;;;;;;5108650;28;19923;-70
2022/03/27 02:57:46;;;;;;;2.20;1.20;;;19.70;50.50;;;;;;5112224;28;20043;-71
2022/03/27 03:00:12;;;;;;;2.05;1.15;;;19.70;50.40;;;;;;5111447;28;20070;-70
2022/03/27 03:02:38;;;;;;;1.40;1.13;;;19.70;50.40;;;;;;5109800;28;20394;-70
2022/03/27 03:05:04;;;;;;;2.33;1.30;;;19.70;50.40;;;;;;5111518;28;20039;-69
2022/03/27 03:07:31;;;;;;;1.77;1.20;;;19.70;50.40;;;;;;5112439;28;20039;-69
2022/03/27 03:09:57;;;;;;;1.58;1.10;;;19.70;50.50;;;;;;5111135;28;20073;-69
2022/03/27 03:12:23;;;;;;;3.40;1.30;;;19.70;50.50;;;;;;5089940;28;20434;-71
2022/03/27 03:14:50;;;;;;;1.88;1.25;;;19.70;50.40;;;;;;5089651;28;20063;-70
2022/03/27 03:17:16;;;;;;;2.33;1.15;;;19.70;50.40;;;;;;5089100;28;20036;-71
2022/03/27 03:19:42;;;;;;;3.08;1.33;;;19.70;50.40;;;;;;5089059;28;20418;-70
2022/03/27 03:22:08;;;;;;;1.73;1.10;;;19.70;50.40;;;;;;5091181;28;20035;-70
2022/03/27 03:24:34;;;;;;;2.17;1.10;;;19.70;50.50;;;;;;5091377;28;20126;-70
2022/03/27 03:27:01;;;;;;;2.13;1.20;;;19.60;50.40;;;;;;5091425;28;20040;-70
2022/03/27 03:29:27;;;;;;;2.15;1.20;;;19.60;50.40;;;;;;5089899;28;20062;-70
2022/03/27 03:31:52;;;;;;;3.03;1.38;;;19.70;50.40;;;;;;5089164;28;20490;-69
2022/03/27 03:34:18;;;;;;;1.90;1.20;;;19.60;50.40;;;;;;5091257;28;20044;-70
2022/03/27 03:36:44;;;;;;;1.52;1.00;;;19.60;50.40;;;;;;5091881;28;20032;-72
2022/03/27 03:39:10;;;;;;;2.25;1.42;;;19.60;50.40;;;;;;5088955;28;20039;-72
2022/03/27 03:41:36;;;;;;;1.65;1.10;;;19.60;50.30;;;;;;5091050;28;20743;-70
2022/03/27 03:44:02;;;;;;;2.22;1.02;;;19.60;50.30;;;;;;5091447;28;20044;-72
2022/03/27 03:46:28;;;;;;;2.53;1.33;;;19.60;50.30;;;;;;5090991;28;20047;-72
2022/03/27 03:48:53;;;;;;;2.42;1.20;;;19.60;50.40;;;;;;5090700;28;20031;-70
2022/03/27 03:51:19;;;;;;;2.28;1.10;;;19.60;50.30;;;;;;5083303;28;20070;-71
2022/03/27 03:53:45;;;;;;;3.10;1.23;;;19.60;50.40;;;;;;5089650;28;20024;-71
2022/03/27 03:56:14;;;;;;;2.33;1.20;;;19.60;50.40;;;;;;5089524;28;20071;-72
2022/03/27 03:58:40;;;;;;;1.95;1.20;;;19.60;50.40;;;;;;5089070;28;20048;-71
2022/03/27 04:01:05;;;;;;;2.10;1.30;;;19.60;50.40;;;;;;5090495;28;20118;-71
2022/03/27 04:03:31;;;;;;;1.98;1.23;;;19.60;50.40;;;;;;5088155;28;20047;-71
2022/03/27 04:05:57;;;;;;;3.20;1.17;;;19.60;50.40;;;;;;5090054;28;20043;-70
2022/03/27 04:08:22;;;;;;;2.78;1.33;;;19.60;50.40;;;;;;5086560;28;20036;-70
2022/03/27 04:10:48;;;;;;;4.28;1.23;;;19.60;50.30;;;;;;5090635;28;20038;-70
2022/03/27 04:13:14;;;;;;;2.35;1.10;;;19.60;50.30;;;;;;5071979;28;20604;-71
2022/03/27 04:15:40;;;;;;;3.00;1.25;;;19.60;50.30;;;;;;5089369;28;20059;-71
2022/03/27 04:18:06;;;;;;;3.70;1.10;;;19.60;50.30;;;;;;5089495;28;20057;-72
2022/03/27 04:20:34;;;;;;;1.90;1.10;;;19.60;50.30;;;;;;5121652;27;20501;-70
2022/03/27 04:23:01;;;;;;;2.28;1.00;;;19.60;50.20;;;;;;5089287;28;20046;-69
2022/03/27 04:25:27;;;;;;;2.17;1.27;;;19.60;50.20;;;;;;5086032;28;20044;-71
2022/03/27 04:27:54;;;;;;;3.58;1.40;;;19.60;50.20;;;;;;5089306;28;20036;-72
2022/03/27 04:30:20;;;;;;;1.65;1.15;;;19.60;50.20;;;;;;5087064;28;20605;-72
2022/03/27 04:32:47;;;;;;;2.25;1.15;;;19.60;50.20;;;;;;5088329;28;20044;-70
2022/03/27 04:35:13;;;;;;;2.08;1.10;;;19.60;50.10;;;;;;5089428;28;20402;-72
2022/03/27 04:37:43;;;;;;;3.47;1.45;;;19.60;50.10;;;;;;5088711;28;20036;-70
2022/03/27 04:40:13;;;;;;;2.58;1.10;;;19.60;50.10;;;;;;5088638;28;20032;-71
2022/03/27 04:42:40;;;;;;;2.83;1.30;;;19.60;50.10;;;;;;5089467;28;20044;-71
2022/03/27 04:45:06;;;;;;;1.88;0.98;;;19.60;50.10;;;;;;5089638;28;20475;-72
2022/03/27 04:47:32;;;;;;;2.88;1.20;;;19.60;50.80;;;;;;5090091;28;20044;-69
2022/03/27 04:49:59;;;;;;;3.40;1.35;;;19.70;50.10;;;;;;5088271;28;20036;-70
2022/03/27 04:52:25;;;;;;;1.88;1.10;;;19.70;50.10;;;;;;5089363;28;20594;-69
2022/03/27 04:54:51;;;;;;;3.35;1.20;;;19.70;50.00;;;;;;5088371;28;20078;-69
2022/03/27 04:57:17;;;;;;;2.88;1.23;;;19.60;50.00;;;;;;5090304;28;20574;-72
2022/03/27 04:59:42;;;;;;;2.83;1.25;;;19.70;50.00;;;;;;5088274;28;20115;-72
2022/03/27 05:02:08;;;;;;;2.40;1.35;;;19.70;50.00;;;;;;5088917;28;20032;-70
2022/03/27 05:04:34;;;;;;;2.63;1.38;;;19.70;50.00;;;;;;5089053;28;20035;-70
2022/03/27 05:06:59;;;;;;;2.05;1.00;;;19.60;50.00;;;;;;5087305;28;20076;-70
2022/03/27 05:09:25;;;;;;;3.67;1.27;;;19.60;49.90;;;;;;5089234;28;20042;-71
2022/03/27 05:11:51;;;;;;;3.55;1.40;;;19.70;50.00;;;;;;5096767;28;20035;-71
2022/03/27 05:14:17;;;;;;;2.17;1.02;;;19.70;49.90;;;;;;5110305;28;20048;-70
2022/03/27 05:16:42;;;;;;;3.75;1.15;;;19.70;49.90;;;;;;5109816;28;20042;-69
2022/03/27 05:19:08;;;;;;;3.45;1.10;;;19.70;49.90;;;;;;5073928;28;20426;-71
2022/03/27 05:21:35;;;;;;;4.10;1.35;;;19.70;49.90;;;;;;5089470;28;20047;-70
2022/03/27 05:24:01;;;;;;;3.38;1.08;;;19.70;49.90;;;;;;5109403;28;20058;-70
2022/03/27 05:26:27;;;;;;;1.65;1.10;;;19.70;49.90;;;;;;5109477;28;20142;-70
2022/03/27 05:28:54;;;;;;;2.35;1.20;;;19.70;49.90;;;;;;5108419;28;20063;-71
2022/03/27 05:31:20;;;;;;;2.85;1.23;;;19.70;49.90;;;;;;5109578;28;20055;-71
2022/03/27 05:33:46;;;;;;;3.35;1.30;;;19.70;49.90;;;;;;5109729;28;20032;-71
2022/03/27 05:36:12;;;;;;;2.28;1.10;;;19.70;49.90;;;;;;5108998;28;20043;-71
2022/03/27 05:38:39;;;;;;;2.30;1.10;;;19.70;49.90;;;;;;5107367;28;20036;-71
2022/03/27 05:41:09;;;;;;;3.75;1.17;;;19.70;49.90;;;;;;5108890;28;20040;-71
2022/03/27 05:43:35;;;;;;;1.70;0.90;;;19.70;49.80;;;;;;5091177;28;20051;-72
2022/03/27 05:46:02;;;;;;;3.20;1.30;;;19.70;49.90;;;;;;5108890;28;20400;-70
2022/03/27 05:48:28;;;;;;;2.50;1.40;;;19.70;49.80;;;;;;5108580;28;20043;-72
2022/03/27 05:50:53;;;;;;;2.58;1.20;;;19.70;49.90;;;;;;5108140;28;20039;-70
2022/03/27 05:53:20;;;;;;;2.38;1.20;;;19.70;49.80;;;;;;5108579;28;20648;-71
2022/03/27 05:55:47;;;;;;;1.98;1.10;;;19.70;49.90;;;;;;5106344;28;20193;-71
2022/03/27 05:58:13;;;;;;;2.22;1.23;;;19.70;49.80;;;;;;5090631;28;20094;-70
2022/03/27 06:00:40;;;;;;;2.20;1.02;;;19.70;49.90;;;;;;5108454;28;20037;-72
2022/03/27 06:03:06;;;;;;;3.17;1.20;;;19.70;49.80;;;;;;5090735;28;20051;-71
2022/03/27 06:05:32;;;;;;;1.83;0.90;;;19.70;49.80;;;;;;5104821;28;20043;-70
2022/03/27 06:07:59;;;;;;;2.72;1.25;;;19.70;49.80;;;;;;5107838;28;20040;-70
2022/03/27 06:10:26;;;;;;;2.33;1.10;;;19.70;49.80;;;;;;5108210;28;20035;-71
2022/03/27 06:12:53;;;;;;;2.90;1.17;;;19.70;49.80;;;;;;5108978;28;20039;-70
2022/03/27 06:15:20;;;;;;;2.15;0.98;;;19.70;49.80;;;;;;5108461;28;20063;-71
2022/03/27 06:17:47;;;;;;;3.05;1.17;;;19.70;49.80;;;;;;5108542;28;20447;-70
2022/03/27 06:20:18;;;;;;;2.93;1.10;;;19.70;49.80;;;;;;5107159;28;20486;-71
2022/03/27 06:22:45;;;;;;;2.92;1.15;;;19.70;49.80;;;;;;5106376;28;20499;-71
2022/03/27 06:25:16;;;;;;;3.50;1.15;;;19.70;49.80;;;;;;5107708;28;20050;-71
2022/03/27 06:27:42;;;;;;;3.47;1.17;;;19.70;49.70;;;;;;5089957;28;20056;-70
2022/03/27 06:30:11;;;;;;;3.08;1.10;;;19.70;49.70;;;;;;5107392;28;20050;-70
2022/03/27 06:32:37;;;;;;;3.85;1.15;;;19.80;49.70;;;;;;5112938;28;20097;-72
2022/03/27 06:35:06;;;;;;;1.75;0.95;;;19.80;49.70;;;;;;5112183;28;20150;-70
2022/03/27 06:37:33;;;;;;;2.53;1.10;;;19.80;49.70;;;;;;5111351;28;20038;-71
2022/03/27 06:39:59;;;;;;;2.40;0.82;;;19.80;49.70;;;;;;5111439;28;20118;-72
2022/03/27 06:42:27;;;;;;;2.85;1.00;;;19.80;49.70;;;;;;5112790;28;20157;-69
2022/03/27 06:44:54;;;;;;;2.92;1.10;;;19.80;49.70;;;;;;5112668;28;20081;-71
2022/03/27 06:47:20;;;;;;;3.42;1.33;;;19.80;49.70;;;;;;5094718;28;20058;-70
2022/03/27 06:49:47;;;;;;;2.25;1.20;;;19.80;49.70;;;;;;5111436;28;20096;-71
2022/03/27 06:52:14;;;;;;;2.95;1.20;;;19.80;49.80;;;;;;5075941;28;20851;-69
2022/03/27 06:54:40;;;;;;;2.85;1.38;;;19.90;49.90;;;;;;5110763;28;20038;-73
2022/03/27 06:57:06;;;;;;;3.85;1.17;;;19.90;50.00;;;;;;5097057;28;20031;-72
2022/03/27 07:03:01;;;;;;;3.90;1.30;;;19.90;50.10;;;;;;5113960;27;20376;-72
2022/03/27 07:05:03;;;;;;;4.50;1.10;;;19.90;50.40;;;;;;5108616;28;20517;-70
2022/03/27 07:07:29;;;;;;;4.68;1.13;;;19.90;50.40;;;;;;5089873;28;20533;-70
2022/03/27 07:09:55;;;;;;;4.43;1.40;;;19.90;50.30;;;;;;5092230;28;20131;-74
2022/03/27 07:12:21;;;;;;;9.15;1.50;;;19.90;50.30;;;;;;5091594;28;20138;-70
2022/03/27 07:14:47;;;;;;;2.95;1.10;;;20.00;50.40;;;;;;5109517;28;20051;-69
2022/03/27 07:17:17;;;;;;;3.25;1.30;;;20.00;50.40;;;;;;5114068;27;20047;-69
2022/03/27 07:19:44;;;;;;;3.80;1.30;;;20.00;50.40;;;;;;5111537;28;20073;-69
2022/03/27 07:22:10;;;;;;;6.70;1.42;;;20.00;50.50;;;;;;5109891;28;20524;-69
2022/03/27 07:24:36;;;;;;;7.32;1.70;;;20.00;50.40;;;;;;5111910;27;20039;-69
2022/03/27 07:27:02;;;;;;;6.55;1.73;;;20.00;50.50;;;;;;5109289;28;20047;-68
2022/03/27 07:29:30;;;;;;;4.97;1.52;;;20.00;50.50;;;;;;5111254;28;20110;-70
2022/03/27 07:31:57;;;;;;;4.22;1.50;;;20.10;50.50;;;;;;5094626;28;20047;-69
2022/03/27 07:34:23;;;;;;;5.93;1.67;;;20.10;50.60;;;;;;5110718;28;20058;-69
2022/03/27 07:36:49;;;;;;;4.30;1.30;;;20.10;50.60;;;;;;5092330;28;20493;-70
2022/03/27 07:39:14;;;;;;;6.93;1.80;;;20.10;50.70;;;;;;5110622;27;20023;-71
2022/03/27 07:41:40;;;;;;;5.82;1.48;;;20.10;50.70;;;;;;5110899;28;20111;-69
2022/03/27 07:44:07;;;;;;;6.25;1.90;;;20.10;50.60;;;;;;5114848;27;20036;-70
2022/03/27 07:46:33;;;;;;;7.63;1.83;;;20.10;50.50;;;;;;5092221;28;20043;-70
2022/03/27 07:48:59;;;;;;;9.70;1.70;;;20.10;50.40;;;;;;5108496;27;20039;-73
2022/03/27 07:51:24;;;;;;;5.40;1.77;;;20.20;50.40;;;;;;5085468;28;20039;-74
2022/03/27 07:53:51;;;;;;;6.45;1.75;;;20.20;50.30;;;;;;5089209;28;20043;-72
2022/03/27 07:56:18;;;;;;;10.82;2.05;;;20.20;50.30;;;;;;5088182;28;20039;-69
2022/03/27 07:58:44;;;;;;;10.90;2.15;;;20.20;50.40;;;;;;5109718;28;20040;-71
2022/03/27 08:01:12;;;;;;;11.50;1.98;;;20.20;50.50;;;;;;5110189;28;20538;-71
2022/03/27 08:03:39;;;;;;;9.77;2.13;;;20.30;50.70;;;;;;5107475;27;20043;-66
2022/03/27 08:06:06;;;;;;;12.75;2.20;;;20.30;50.90;;;;;;5110897;28;20048;-66
2022/03/27 08:08:32;;;;;;;10.95;2.20;;;20.30;51.20;;;;;;5091036;28;20082;-66
2022/03/27 08:10:59;;;;;;;10.02;2.58;;;20.30;51.30;;;;;;5110691;28;20088;-67
2022/03/27 08:13:31;;;;;;;9.20;1.92;;;20.30;51.50;;;;;;5111114;28;20055;-66
2022/03/27 08:15:56;;;;;;;7.70;2.10;;;20.40;51.70;;;;;;5110808;28;20046;-67
2022/03/27 08:18:22;;;;;;;12.50;2.63;;;20.40;51.70;;;;;;5108925;28;20028;-68
2022/03/27 08:20:48;;;;;;;10.35;2.25;;;20.40;51.80;;;;;;5091612;28;20051;-67
2022/03/27 08:23:14;;;;;;;10.80;2.40;;;20.50;52.00;;;;;;5109949;28;20039;-66
2022/03/27 08:28:25;;;;;;;9.15;2.60;;;20.50;52.10;;;;;;5110416;28;20047;-67
2022/03/27 08:30:50;;;;;;;10.18;2.22;;;20.60;52.10;;;;;;5110405;28;20488;-67
2022/03/27 08:33:17;;;;;;;10.05;2.50;;;20.60;52.10;;;;;;5109951;28;20126;-67
2022/03/27 08:35:44;;;;;;;10.68;2.38;;;20.60;52.20;;;;;;5109848;28;20040;-68
2022/03/27 08:38:14;;;;;;;8.25;2.42;;;20.60;52.20;;;;;;5098746;27;20047;-68
2022/03/27 08:40:41;;;;;;;8.38;2.03;;;20.70;52.30;;;;;;5094474;28;20070;-67
2022/03/27 08:43:12;;;;;;;8.68;2.45;;;20.70;52.20;;;;;;5111917;28;20024;-67
2022/03/27 08:45:38;;;;;;;12.27;2.47;;;20.70;52.20;;;;;;5111355;28;20035;-67
2022/03/27 08:48:05;;;;;;;11.18;2.50;;;20.70;52.10;;;;;;5091338;28;20040;-66
2022/03/27 08:50:42;;;;;;;7.57;2.20;;;20.80;52.20;;;;;;5109426;28;20039;-66
2022/03/27 08:53:11;;;;;;;9.90;2.75;;;20.80;52.10;;;;;;5107469;28;20043;-71
2022/03/27 08:55:52;;;;;;;9.05;2.17;;;20.90;52.10;;;;;;5099082;28;20625;-71
2022/03/27 08:58:19;;;;;;;7.88;2.42;;;20.90;52.20;;;;;;5110177;27;20077;-72
2022/03/27 09:00:45;;;;;;;11.18;2.50;;;20.90;52.40;;;;;;5104958;28;20031;-71
2022/03/27 09:03:11;;;;;;;10.35;2.55;;;21.00;52.40;;;;;;5109316;27;20293;-69
2022/03/27 09:05:38;;;;;;;15.40;2.88;;;21.10;52.50;;;;;;5091261;28;20074;-69
2022/03/27 09:08:07;;;;;;;12.68;2.65;;;21.20;52.60;;;;;;5108351;28;20375;-71
2022/03/27 09:10:34;;;;;;;8.40;2.25;;;21.20;52.60;;;;;;5089959;28;20032;-71
2022/03/27 09:13:00;;;;;;;10.73;2.78;;;21.30;52.60;;;;;;5109513;28;20055;-69
2022/03/27 09:15:26;;;;;;;9.95;2.50;;;21.30;52.50;;;;;;5110456;28;20085;-70
2022/03/27 09:18:04;;;;;;;10.57;2.50;;;21.40;52.60;;;;;;5097664;28;20039;-70
2022/03/27 09:20:44;;;;;;;9.05;2.38;;;21.40;52.50;;;;;;5109610;28;20035;-70
2022/03/27 09:23:19;;;;;;;13.07;2.72;;;21.50;52.50;;;;;;5091172;28;20028;-69
2022/03/27 09:25:48;;;;;;;9.25;2.38;;;21.50;52.40;;;;;;5091985;28;20039;-68
2022/03/27 09:28:35;;;;;;;8.85;2.35;;;21.60;52.40;;;;;;5091736;28;20039;-71
2022/03/27 09:31:07;;;;;;;9.45;2.30;;;21.60;52.40;;;;;;5106613;28;20039;-70
2022/03/27 09:33:55;;;;;;;9.68;2.63;;;21.60;52.30;;;;;;5100135;27;20059;-70
2022/03/27 09:36:39;;;;;;;10.45;3.08;;;21.70;52.40;;;;;;5075732;28;20486;-69
2022/03/27 09:39:22;;;;;;;7.70;2.35;;;21.80;52.40;;;;;;5084526;28;20035;-70
2022/03/27 09:41:59;;;;;;;8.52;2.60;;;21.70;52.30;;;;;;5072888;28;20089;-71
2022/03/27 09:44:36;;;;;;;10.38;2.75;;;21.80;52.30;;;;;;5069436;28;20032;-71
2022/03/27 09:47:08;;;;;;;10.88;2.60;;;21.80;52.20;;;;;;5077896;28;20036;-69
2022/03/27 09:49:49;;;;;;;10.48;2.45;;;21.90;52.20;;;;;;5093864;28;20046;-73
2022/03/27 09:52:30;;;;;;;15.35;2.72;;;21.90;52.10;;;;;;5093648;28;20388;-71
2022/03/27 09:55:09;;;;;;;10.65;2.33;;;21.90;52.10;;;;;;5095476;28;20178;-71
2022/03/27 09:57:38;;;;;;;8.27;2.47;;;22.00;52.00;;;;;;5097252;28;20032;-70
2022/03/27 10:00:11;;;;;;;9.50;2.33;;;22.00;52.00;;;;;;5097457;28;20032;-71
2022/03/27 10:02:39;;;;;;;10.48;2.38;;;22.00;51.90;;;;;;5078793;28;20035;-72
2022/03/27 10:05:12;;;;;;;10.48;2.78;;;22.10;52.00;;;;;;5093319;28;20398;-71
2022/03/27 10:07:40;;;;;;;9.27;2.55;;;22.10;52.00;;;;;;5088361;28;20455;-70
2022/03/27 10:10:15;;;;;;;12.38;2.42;;;22.10;51.90;;;;;;5095545;28;20039;-69
2022/03/27 10:12:43;;;;;;;9.65;2.38;;;22.10;51.90;;;;;;5131437;27;20059;-71
2022/03/27 10:15:18;;;;;;;9.15;2.53;;;22.10;51.80;;;;;;5113646;28;20052;-72
2022/03/27 10:18:13;;;;;;;11.30;2.97;;;22.20;51.80;;;;;;5113907;28;20090;-70
2022/03/27 10:20:40;;;;;;;8.25;2.25;;;22.20;51.70;;;;;;5103954;28;20055;-72
2022/03/27 10:23:34;;;;;;;10.23;2.75;;;22.30;51.70;;;;;;5082902;28;20071;-71
2022/03/27 10:26:03;;;;;;;10.30;2.60;;;22.30;51.60;;;;;;5112359;28;20044;-69
2022/03/27 10:28:29;;;;;;;;;;;22.30;51.50;;;;;;5113692;28;20043;-70
2022/03/27 10:30:56;;;;;;;9.63;2.40;;;22.30;51.40;;;;;;5113845;28;19915;-71
2022/03/27 10:33:28;;;;;;;9.57;2.53;;;22.30;51.50;;;;;;5106895;28;20057;-71
2022/03/27 10:36:21;;;;;;;10.60;2.45;;;22.30;51.50;;;;;;5103635;28;20525;-69
2022/03/27 10:39:14;;;;;;;11.90;2.90;;;22.40;51.70;;;;;;5116626;27;20102;-70
2022/03/27 10:41:49;;;;;;;8.23;2.28;;;22.40;51.60;;;;;;5098546;28;20116;-71
2022/03/27 10:44:45;;;;;;;7.22;2.08;;;22.40;51.60;;;;;;5093296;28;20081;-70
2022/03/27 10:47:17;;;;;;;13.95;2.53;;;22.40;51.50;;;;;;5109082;28;20039;-70
2022/03/27 10:50:08;;;;;;;9.57;2.58;;;22.40;51.40;;;;;;5111843;28;20036;-71
2022/03/27 10:52:42;;;;;;;8.40;2.40;;;22.40;51.30;;;;;;5078534;28;20043;-70
2022/03/27 10:55:11;;;;;;;8.63;2.78;;;22.40;51.40;;;;;;5112569;28;20039;-69
2022/03/27 10:57:45;;;;;;;9.52;2.80;;;22.40;51.30;;;;;;5131166;27;20032;-69
2022/03/27 11:00:13;;;;;;;10.82;2.80;;;22.40;51.20;;;;;;5112883;28;20035;-69
2022/03/27 11:02:48;;;;;;;10.00;2.63;;;22.40;51.00;;;;;;5091141;28;20043;-69
2022/03/27 11:05:36;;;;;;;16.48;3.10;;;22.50;50.70;;;;;;5084919;28;20378;-67
2022/03/27 11:08:17;;;;;;;14.05;3.17;;;22.50;50.40;;;;;;5108802;28;20040;-69
2022/03/27 11:10:49;;;;;;;10.98;2.92;;;22.50;50.20;;;;;;5092837;28;20067;-69
2022/03/27 11:13:28;;;;;;;11.60;2.50;;;22.50;50.20;;;;;;5113939;28;20054;-70
2022/03/27 11:16:11;;;;;;;11.85;2.92;;;22.50;49.90;;;;;;5095487;28;20164;-71
2022/03/27 11:18:45;;;;;;;12.32;3.40;;;22.50;50.60;;;;;;5090061;28;20436;-70
2022/03/27 11:21:31;;;;;;;9.57;2.80;;;22.50;49.60;;;;;;5110851;28;20050;-70
2022/03/27 11:24:03;;;;;;;11.85;3.00;;;22.50;49.50;;;;;;5110482;28;20035;-70
2022/03/27 11:26:32;;;;;;;10.52;2.90;;;22.50;49.30;;;;;;5094062;28;20069;-69
2022/03/27 11:28:59;;;;;;;;;;;22.50;49.90;;;;;;5112596;28;20490;-69
2022/03/27 11:31:30;;;;;;;13.57;3.03;;;22.40;48.80;;;;;;5124020;27;20355;-69
2022/03/27 11:34:05;;;;;;;11.07;2.67;;;22.50;49.00;;;;;;5109588;28;20118;-69
2022/03/27 11:36:32;;;;;;;15.07;3.13;;;22.40;48.60;;;;;;5107540;28;20059;-69
2022/03/27 11:39:04;;;;;;;9.98;2.78;;;22.50;48.70;;;;;;5092400;28;20043;-68
2022/03/27 11:41:42;;;;;;;12.70;3.42;;;22.40;48.50;;;;;;5112467;28;20039;-70
2022/03/27 11:44:17;;;;;;;12.82;2.60;;;22.40;48.20;;;;;;5112200;28;20118;-68
2022/03/27 11:46:56;;;;;;;11.63;2.80;;;22.50;48.10;;;;;;5091951;28;20078;-69
2022/03/27 11:49:37;;;;;;;13.95;2.78;;;22.40;47.70;;;;;;5111834;27;20054;-69
2022/03/27 11:52:08;;;;;;;12.75;2.97;;;22.40;47.70;;;;;;5107664;28;20036;-69
2022/03/27 11:54:34;;;;;;;13.80;3.42;;;22.40;47.40;;;;;;5110940;28;20089;-69
2022/03/27 11:57:01;;;;;;;9.85;3.15;;;22.40;47.20;;;;;;5112685;28;20047;-68
2022/03/27 11:59:31;;;;;;;13.13;2.50;;;22.40;46.80;;;;;;5110350;28;20084;-69
2022/03/27 12:02:02;;;;;;;10.15;2.78;;;22.30;46.60;;;;;;5111859;28;20047;-72
2022/03/27 12:04:28;;;;;;;12.27;3.05;;;22.40;46.60;;;;;;5092890;27;20047;-69
2022/03/27 12:07:00;;;;;;;13.40;3.08;;;22.40;46.30;;;;;;5124034;27;20505;-68
2022/03/27 12:09:33;;;;;;;12.85;3.13;;;22.30;45.90;;;;;;5112127;28;20039;-71
2022/03/27 12:12:10;;;;;;;13.85;2.88;;;22.40;45.70;;;;;;5112792;28;20080;-68
2022/03/27 12:15:04;;;;;;;13.30;2.67;;;22.40;45.60;;;;;;5109775;28;20387;-69
2022/03/27 12:17:32;;;;;;;13.52;2.95;;;22.40;45.60;;;;;;5112355;28;20031;-68
2022/03/27 12:20:12;;;;;;;13.13;3.17;;;22.40;45.70;;;;;;5110423;28;20090;-67
2022/03/27 12:22:51;;;;;;;15.48;2.85;;;22.50;45.60;;;;;;5103750;28;20044;-68
2022/03/27 12:25:25;;;;;;;11.60;2.80;;;22.50;45.60;;;;;;5111441;28;20114;-68
2022/03/27 12:30:53;;;;;;;11.40;2.88;;;22.50;45.40;;;;;;5104145;28;20047;-67
2022/03/27 12:33:20;;;;;;;13.20;2.93;;;22.60;45.60;;;;;;5111530;28;20055;-67
2022/03/27 12:36:01;;;;;;;11.50;2.83;;;22.70;45.70;;;;;;5115337;27;20297;-68
2022/03/27 12:38:34;;;;;;;8.20;2.50;;;23.00;45.80;;;;;;5111304;28;20048;-68
2022/03/27 12:41:02;;;;;;;11.10;2.88;;;23.80;44.50;;;;;;5110842;28;20404;-68
2022/03/27 12:43:28;;;;;;;10.90;2.65;;;25.10;42.20;;;;;;5110698;28;20502;-68
2022/03/27 12:45:55;;;;;;;9.52;2.50;;;25.80;41.30;;;;;;5111333;28;20047;-68
2022/03/27 12:48:27;;;;;;;11.45;2.45;;;25.90;40.70;;;;;;5110158;28;20035;-68
2022/03/27 12:50:55;;;;;;;8.93;2.42;;;26.50;39.70;;;;;;5098167;28;20043;-67
2022/03/27 12:53:21;;;;;;;11.93;2.75;;;27.00;38.90;;;;;;5111558;28;20043;-68
2022/03/27 12:56:01;;;;;;;10.32;2.70;;;27.40;38.20;;;;;;5109658;28;20062;-66
2022/03/27 12:58:38;;;;;;;10.50;2.40;;;27.80;36.70;;;;;;5109182;28;20039;-71
2022/03/27 13:01:08;;;;;;;15.95;2.88;;;28.10;36.80;;;;;;5109475;28;20043;-69
2022/03/27 13:03:35;;;;;;;11.00;2.70;;;28.40;36.40;;;;;;5109345;28;20072;-68
2022/03/27 13:06:03;;;;;;;8.55;2.53;;;28.70;36.10;;;;;;5108634;27;20122;-67